Frogmore, South Carolina
Current Conditions -  °F | °C
As of 5:55 PM on Monday 24 Nov 2014 (Local Time) from KARW Reporting Station
Overcast Overcast  
Wind Chill: 68°   Ceiling: 3400
Heat Index: 68°   Visibility: 10mi
Dew Point: 64°   Wind: 0mph
Humidity: 88%   Direction: NA
Pressure: 29.93"   Gusts: NA
Location:  32.3871°N, 80.5485°W
Report Text: KARW 242255Z AUTO 00000KT 10SM SCT028 BKN034 OVC042 20/18 A2993 RMK AO2 LTG DSNT SW THRU N
Loading
Personal Weather Stations






























Interactive Weather Map New forecast layout! Learn more

10-Day Weather Forecast

Advertisements
Track Severe Weather on mobile